WetterOnline ( https://www.wetteronline.de )

Wetter aktuell Stiege

Aktuelles Wetter: Braunlage (609m)

6-stündlich | Neueste Meldungen
Ortszeit Temperatur Wetter
Di, 20.10. 20:00 8.1° C leichter Regen
Di, 20.10. 14:00 9.2° C bedeckt
Di, 20.10. 8:00 2.6° C bedeckt
Di, 20.10. 2:00 1.8° C bedeckt
Mo, 19.10. 20:00 3.5° C leicht bewölkt
Mo, 19.10. 14:00 6.9° C bewölkt
Mo, 19.10. 8:00 5.3° C Sprühregen
Mo, 19.10. 2:00 5.5° C bedeckt
Ortszeit Temperatur Wetter
Mi, 21.10. 0:30 8.6° C leichter Regen
Mi, 21.10. 0:20 8.6° C leichter Regen
Mi, 21.10. 0:10 8.5° C leichter Regen
Mi, 21.10. 0:00 8.5° C leichter Regen
Di, 20.10. 23:50 8.5° C leichter Regen
Di, 20.10. 23:40 8.5° C leichter Regen
Di, 20.10. 23:30 8.5° C Sprühregen
Di, 20.10. 23:00 8.2° C Sprühregen
Ortszeit Relative Feuchte Sichtweite
Di, 20.10. 20:00 95% 8 km
Di, 20.10. 14:00 68% 55 km
Di, 20.10. 8:00 85% 35 km
Di, 20.10. 2:00 96% 4.4 km
Mo, 19.10. 20:00 98% 2.9 km
Mo, 19.10. 14:00 88% 15 km
Mo, 19.10. 8:00 99% 100 m
Mo, 19.10. 2:00 95% 14 km
Ortszeit Relative Feuchte Sichtweite
Mi, 21.10. 0:30 96% 16 km
Mi, 21.10. 0:20 96% -
Mi, 21.10. 0:10 96% -
Mi, 21.10. 0:00 96% 10 km
Di, 20.10. 23:50 96% -
Di, 20.10. 23:40 96% -
Di, 20.10. 23:30 96% 9 km
Di, 20.10. 23:00 96% 11 km
Ortszeit Niederschlagsmenge Niederschlagsart
Di, 20.10. 20:00 3 l/m2 in 12 Std. Regen
Di, 20.10. 14:00 0.0 l/m2 in 6 Std. -
Di, 20.10. 8:00 0.0 l/m2 in 12 Std. -
Di, 20.10. 2:00 0.0 l/m2 in 6 Std. -
Mo, 19.10. 20:00 1 l/m2 in 12 Std. -
Mo, 19.10. 14:00 1 l/m2 in 6 Std. Regen
Mo, 19.10. 8:00 3 l/m2 in 12 Std. Regen
Mo, 19.10. 2:00 2 l/m2 in 6 Std. Regen
Ortszeit Niederschlagsmenge Niederschlagsart
Mi, 21.10. 0:30 0.1 l/m2 in 1 Std. -
Mi, 21.10. 0:20 keine Meldung -
Mi, 21.10. 0:10 keine Meldung -
Mi, 21.10. 0:00 0.1 l/m2 in 1 Std. Regen
Di, 20.10. 23:50 keine Meldung -
Di, 20.10. 23:40 keine Meldung -
Di, 20.10. 23:30 0.1 l/m2 in 1 Std. -
Di, 20.10. 23:00 0.1 l/m2 in 1 Std. Regen
Ortszeit Stärke Spitze Richtung
km/h Bft. km/h Grad Sektor
Di, 20.10. 20:00 9 2 28 260° W
Di, 20.10. 14:00 13 3 30 240° SW
Di, 20.10. 8:00 9 2 30 240° SW
Di, 20.10. 2:00 4 1 11 220° SW
Mo, 19.10. 20:00 4 1 14 330° NW
Mo, 19.10. 14:00 6 1 17 260° W
Mo, 19.10. 8:00 7 2 18 220° SW
Mo, 19.10. 2:00 7 2 25 250° W
Ortszeit Stärke Spitze Richtung
km/h Bft. km/h Grad Sektor
Mi, 21.10. 0:30 6 1 11 260° W
Mi, 21.10. 0:20 6 1 - 260° W
Mi, 21.10. 0:10 6 1 - 270° W
Mi, 21.10. 0:00 7 2 14 240° SW
Di, 20.10. 23:50 7 2 - 240° SW
Di, 20.10. 23:40 6 1 - 260° W
Di, 20.10. 23:30 7 2 15 240° SW
Di, 20.10. 23:00 7 2 25 260° W
Ortszeit Untergrenze Bedeckung Gattung
total tief tief mittel hoch
Di, 20.10. 20:00 210 m 7/8 7/8 - - -
Di, 20.10. 14:00 4800 m 8/8 8/8 - - -
Di, 20.10. 8:00 4800 m 8/8 8/8 - - -
Di, 20.10. 2:00 6300 m 8/8 8/8 - - -
Mo, 19.10. 20:00 9000 m 6/8 0/8 - - -
Mo, 19.10. 14:00 420 m 7/8 6/8 - - -
Mo, 19.10. 8:00 <30 m 8/8 0/8 - - -
Mo, 19.10. 2:00 180 m 8/8 8/8 - - -
Ortszeit Bedeckungsgrad in Achtel und Wolkenuntergrenze
Mi, 21.10. 0:30 7(900m) 7(1800m) 7(4500m)
Mi, 21.10. 0:20 7(900m) 7(1800m) 7(4500m)
Mi, 21.10. 0:10 6(900m) 7(3600m) 8(4800m)
Mi, 21.10. 0:00 3(360m) 7(3600m) 8(4200m)
Di, 20.10. 23:50 3(360m) 7(3600m) 8(4200m)
Di, 20.10. 23:40 2(210m) 7(3600m) 8(4500m)
Di, 20.10. 23:30 6(210m) 8(360m)
Di, 20.10. 23:00 7(270m) 8(3900m) 8(4800m)
Ortszeit Luftdruck NN (hPa) Tendenz (hPa in 3 Std.)
Di, 20.10. 20:00 1013 0,0
Di, 20.10. 14:00 1014 - 0,6
Di, 20.10. 8:00 1017 - 1,5
Di, 20.10. 2:00 1021 - 2,0
Mo, 19.10. 20:00 1022 - 0,8
Mo, 19.10. 14:00 1023 - 0,2
Mo, 19.10. 8:00 1022 + 0,3
Mo, 19.10. 2:00 1022 + 0,4
Ortszeit Luftdruck NN (hPa) Tendenz (hPa in 3 Std.)
Mi, 21.10. 0:30 1012 - 0,7
Mi, 21.10. 0:20 1012 keine Meldung
Mi, 21.10. 0:10 1012 keine Meldung
Mi, 21.10. 0:00 1013 - 0,4
Di, 20.10. 23:50 1013 keine Meldung
Di, 20.10. 23:40 1013 keine Meldung
Di, 20.10. 23:30 1013 - 0,5
Di, 20.10. 23:00 1013 - 0,3
Ortszeit Schneehöhe (cm)
Di, 20.10. 20:00 0
Di, 20.10. 14:00 0
Di, 20.10. 8:00 0
Di, 20.10. 2:00 0
Mo, 19.10. 20:00 0
Mo, 19.10. 14:00 0
Mo, 19.10. 8:00 0
Mo, 19.10. 2:00 0
Ortszeit Schneehöhe (cm)
Mi, 21.10. 0:30 0
Mi, 21.10. 0:20 0
Mi, 21.10. 0:10 0
Mi, 21.10. 0:00 0
Di, 20.10. 23:50 0
Di, 20.10. 23:40 0
Di, 20.10. 23:30 0
Di, 20.10. 23:00 0
Link zu dieser Seite / Seite empfehlen

Das Wetter in ...